South Hiram, Maine
Current Conditions -  °F | °C
As of 12:54 PM on Thursday 27 Nov 2014 (Local Time) from KIZG Reporting Station
NA  
Wind Chill: 32°   Ceiling: NA
Heat Index: 36°   Visibility: 10mi
Dew Point: 24°   Wind: 5mph
Humidity: 62%   Direction: 40°NE
Pressure: 29.92"   Gusts: NA
Location:  43.8772°N, 70.8351°W
Report Text: KIZG 271754Z AUTO 04004KT 10SM 02/M04 A2992 RMK AO2 SLP137 I6000 T00221044 10028 21017 50007 $
Loading
Personal Weather Stations






























Interactive Weather Map New forecast layout! Learn more

10-Day Weather Forecast

Advertisements
Track Severe Weather on mobile